createdAt,value
2023-03-17T00:00:29.966Z,59.71
2023-03-17T00:02:04.024Z,59.91
2023-03-17T00:03:17.689Z,60.80
2023-03-17T00:04:11.334Z,61.28
2023-03-17T00:05:25.054Z,62.34
2023-03-17T00:06:38.707Z,65.49
2023-03-17T00:07:52.284Z,66.75
2023-03-17T00:09:08.700Z,65.72
2023-03-17T00:10:12.817Z,63.87
2023-03-17T00:11:26.564Z,61.43
2023-03-17T00:12:40.215Z,58.98
2023-03-17T00:13:53.805Z,56.24
2023-03-17T00:15:07.554Z,55.52
2023-03-17T00:16:21.564Z,55.85
2023-03-17T00:17:35.443Z,56.23
2023-03-17T00:18:43.850Z,57.07
2023-03-17T00:19:57.421Z,57.78
2023-03-17T00:21:11.194Z,58.39
2023-03-17T00:22:14.651Z,58.99
2023-03-17T00:23:28.294Z,59.92
2023-03-17T00:24:41.255Z,60.22
2023-03-17T00:25:57.796Z,60.65
2023-03-17T00:27:11.607Z,61.05
2023-03-17T00:28:25.425Z,61.77
2023-03-17T00:29:33.123Z,63.15
2023-03-17T00:30:47.038Z,65.27
2023-03-17T00:31:54.008Z,64.52
2023-03-17T00:33:07.524Z,64.31
2023-03-17T00:34:09.492Z,63.62
2023-03-17T00:35:11.877Z,62.48
2023-03-17T00:36:25.825Z,61.41
2023-03-17T00:37:19.371Z,59.65
2023-03-17T00:38:32.828Z,56.44
2023-03-17T00:39:46.295Z,55.49
2023-03-17T00:41:02.854Z,55.37
2023-03-17T00:42:16.503Z,56.07
2023-03-17T00:43:30.759Z,57.09
2023-03-17T00:44:44.351Z,57.27
2023-03-17T00:45:57.836Z,58.28
2023-03-17T00:47:11.532Z,59.33
2023-03-17T00:48:25.462Z,59.58
2023-03-17T00:49:39.017Z,59.87
2023-03-17T00:50:52.543Z,60.56
2023-03-17T00:52:06.119Z,61.42
2023-03-17T00:53:08.396Z,62.53
2023-03-17T00:54:21.982Z,65.15
2023-03-17T00:55:35.671Z,66.16
2023-03-17T00:56:52.252Z,64.47
2023-03-17T00:58:05.819Z,62.88
2023-03-17T00:59:04.797Z,61.67
2023-03-17T01:00:18.386Z,59.30
2023-03-17T01:01:32.151Z,56.62
2023-03-17T01:02:25.767Z,55.55
2023-03-17T01:03:39.399Z,55.81
2023-03-17T01:04:59.694Z,55.91
2023-03-17T01:06:01.169Z,56.53
2023-03-17T01:07:14.726Z,57.88
2023-03-17T01:08:28.389Z,58.11
2023-03-17T01:09:32.052Z,58.85
2023-03-17T01:10:45.771Z,59.78
2023-03-17T01:11:59.314Z,60.21
2023-03-17T01:13:12.889Z,60.81
2023-03-17T01:14:26.340Z,61.18
2023-03-17T01:15:39.889Z,61.78
2023-03-17T01:16:53.030Z,63.11
2023-03-17T01:18:06.752Z,65.47
2023-03-17T01:19:20.393Z,65.47
2023-03-17T01:20:16.807Z,65.48
2023-03-17T01:21:30.525Z,63.46
2023-03-17T01:22:44.554Z,62.24
2023-03-17T01:23:58.186Z,60.95
2023-03-17T01:25:11.709Z,58.52
2023-03-17T01:26:26.136Z,55.71
2023-03-17T01:27:21.753Z,55.06
2023-03-17T01:28:28.292Z,55.96
2023-03-17T01:29:42.070Z,56.52
2023-03-17T01:31:04.896Z,57.34
2023-03-17T01:32:18.623Z,57.88
2023-03-17T01:33:32.391Z,58.85
2023-03-17T01:34:25.741Z,59.57
2023-03-17T01:35:39.323Z,60.96
2023-03-17T01:36:52.940Z,61.04
2023-03-17T01:38:06.489Z,61.60
2023-03-17T01:39:20.108Z,62.65
2023-03-17T01:40:33.957Z,65.45
2023-03-17T01:41:46.844Z,65.64
2023-03-17T01:42:40.151Z,64.46
2023-03-17T01:43:53.599Z,62.57
2023-03-17T01:45:00.102Z,62.42
2023-03-17T01:46:12.198Z,61.35
2023-03-17T01:47:05.552Z,61.86
2023-03-17T01:48:12.277Z,62.30
2023-03-17T01:49:34.917Z,59.02
2023-03-17T01:50:48.582Z,56.17
2023-03-17T01:52:02.375Z,55.47
2023-03-17T01:53:16.005Z,55.72
2023-03-17T01:54:16.946Z,56.56
2023-03-17T01:55:39.218Z,57.56
2023-03-17T01:56:32.698Z,57.75
2023-03-17T01:57:49.130Z,59.33
2023-03-17T01:58:51.608Z,59.47
2023-03-17T02:00:05.185Z,60.71
2023-03-17T02:01:18.909Z,61.11
2023-03-17T02:02:32.460Z,61.64
2023-03-17T02:03:46.146Z,63.02
2023-03-17T02:04:59.906Z,65.21
2023-03-17T02:06:13.745Z,65.95
2023-03-17T02:07:27.528Z,65.32
2023-03-17T02:08:41.197Z,63.93
2023-03-17T02:09:54.851Z,62.69
2023-03-17T02:11:02.559Z,61.15
2023-03-17T02:12:16.038Z,59.12
2023-03-17T02:13:26.097Z,56.33
2023-03-17T02:14:39.759Z,55.64
2023-03-17T02:15:53.269Z,55.84
2023-03-17T02:17:06.757Z,56.56
2023-03-17T02:18:20.380Z,57.36
2023-03-17T02:19:34.050Z,58.16
2023-03-17T02:20:56.790Z,58.87
2023-03-17T02:22:10.279Z,59.32
2023-03-17T02:23:26.606Z,60.21
2023-03-17T02:24:39.881Z,60.92
2023-03-17T02:25:16.554Z,61.79
2023-03-17T02:26:30.076Z,63.30
2023-03-17T02:27:58.534Z,65.29
2023-03-17T02:29:12.279Z,66.76
2023-03-17T02:30:26.126Z,65.95
2023-03-17T02:31:38.307Z,64.64
2023-03-17T02:32:45.276Z,63.44
2023-03-17T02:33:58.856Z,62.26
2023-03-17T02:35:12.538Z,61.34
2023-03-17T02:36:26.147Z,59.19
2023-03-17T02:37:28.509Z,57.03
2023-03-17T02:38:29.176Z,56.56
2023-03-17T02:39:42.975Z,56.53
2023-03-17T02:40:56.609Z,56.89
2023-03-17T02:41:59.023Z,57.47
2023-03-17T02:43:12.894Z,58.44
2023-03-17T02:44:26.458Z,58.70
2023-03-17T02:45:39.934Z,59.17
2023-03-17T02:46:53.462Z,59.70
2023-03-17T02:48:07.006Z,60.26
2023-03-17T02:49:20.626Z,60.85
2023-03-17T02:50:14.577Z,61.22
2023-03-17T02:51:28.315Z,62.29
2023-03-17T02:52:41.781Z,64.53
2023-03-17T02:53:55.401Z,65.88
2023-03-17T02:54:51.947Z,65.76
2023-03-17T02:56:05.363Z,64.28
2023-03-17T02:57:19.047Z,63.48
2023-03-17T02:58:02.026Z,61.67
2023-03-17T02:59:15.580Z,58.17
2023-03-17T03:00:22.066Z,55.92
2023-03-17T03:01:35.787Z,55.02
2023-03-17T03:02:49.649Z,55.27
2023-03-17T03:03:56.255Z,55.70
2023-03-17T03:05:10.080Z,56.88
2023-03-17T03:06:06.204Z,57.69
2023-03-17T03:07:19.737Z,59.01
2023-03-17T03:08:33.420Z,59.37
2023-03-17T03:09:46.914Z,60.16
2023-03-17T03:10:53.428Z,60.89
2023-03-17T03:12:07.159Z,61.75
2023-03-17T03:13:20.955Z,63.21
2023-03-17T03:14:34.423Z,65.58
2023-03-17T03:15:48.389Z,65.88
2023-03-17T03:17:02.076Z,64.84
2023-03-17T03:18:15.758Z,63.53
2023-03-17T03:19:29.178Z,62.34
2023-03-17T03:20:06.412Z,60.97
2023-03-17T03:21:19.854Z,57.93
2023-03-17T03:22:33.514Z,56.23
2023-03-17T03:23:47.384Z,55.23
2023-03-17T03:25:01.037Z,55.41
2023-03-17T03:26:08.202Z,55.95
2023-03-17T03:27:21.639Z,56.99
2023-03-17T03:28:35.198Z,57.64
2023-03-17T03:29:48.723Z,58.37
2023-03-17T03:30:45.309Z,59.25
2023-03-17T03:31:51.981Z,60.37
2023-03-17T03:33:05.519Z,60.85
2023-03-17T03:34:17.830Z,61.36
2023-03-17T03:35:31.525Z,62.72
2023-03-17T03:36:25.666Z,64.97
2023-03-17T03:37:39.337Z,64.92
2023-03-17T03:38:46.368Z,64.97
2023-03-17T03:40:00.132Z,63.75
2023-03-17T03:41:13.811Z,63.11
2023-03-17T03:42:07.177Z,62.27
2023-03-17T03:43:23.627Z,60.70
2023-03-17T03:44:37.645Z,59.59
2023-03-17T03:45:51.262Z,57.51
2023-03-17T03:47:04.953Z,57.28
2023-03-17T03:48:18.621Z,57.69
2023-03-17T03:49:32.570Z,58.40
2023-03-17T03:50:35.318Z,59.41
2023-03-17T03:51:49.149Z,60.36
2023-03-17T03:53:02.849Z,60.87
2023-03-17T03:54:16.392Z,61.61
2023-03-17T03:55:30.036Z,62.75
2023-03-17T03:56:43.761Z,65.37
2023-03-17T03:57:57.529Z,66.28
2023-03-17T03:59:11.389Z,65.22
2023-03-17T04:00:00.174Z,64.90
2023-03-17T04:01:13.814Z,63.14
2023-03-17T04:02:27.597Z,63.52
2023-03-17T04:03:41.285Z,62.60
2023-03-17T04:04:54.916Z,60.95
2023-03-17T04:06:01.692Z,57.90
2023-03-17T04:07:15.339Z,55.77
2023-03-17T04:08:28.944Z,55.48
2023-03-17T04:09:42.615Z,56.13
2023-03-17T04:10:25.947Z,56.68
2023-03-17T04:11:39.387Z,58.39
2023-03-17T04:12:46.404Z,58.37
2023-03-17T04:13:59.923Z,58.86
2023-03-17T04:15:13.762Z,59.45
2023-03-17T04:16:27.470Z,60.08
2023-03-17T04:17:41.186Z,60.84
2023-03-17T04:18:34.490Z,61.21
2023-03-17T04:19:38.748Z,62.37
2023-03-17T04:20:46.397Z,64.74
2023-03-17T04:21:59.884Z,65.87
2023-03-17T04:23:13.410Z,65.49
2023-03-17T04:24:06.572Z,63.71
2023-03-17T04:25:20.192Z,61.23
2023-03-17T04:26:33.910Z,59.89
2023-03-17T04:27:47.518Z,56.73
2023-03-17T04:29:00.984Z,55.86
2023-03-17T04:30:14.497Z,56.08
2023-03-17T04:31:28.054Z,56.65
2023-03-17T04:32:41.799Z,57.42
2023-03-17T04:33:55.690Z,58.27
2023-03-17T04:35:09.453Z,59.01
2023-03-17T04:36:23.230Z,59.84
2023-03-17T04:37:37.076Z,60.69
2023-03-17T04:38:50.682Z,61.61
2023-03-17T04:39:44.357Z,63.38
2023-03-17T04:40:58.187Z,65.56
2023-03-17T04:42:11.881Z,66.80
2023-03-17T04:43:10.517Z,65.74
2023-03-17T04:44:23.984Z,63.49
2023-03-17T04:45:37.669Z,62.45
2023-03-17T04:46:51.456Z,61.20
2023-03-17T04:47:57.374Z,59.20
2023-03-17T04:49:10.980Z,56.79
2023-03-17T04:50:24.660Z,56.14
2023-03-17T04:51:38.284Z,56.46
2023-03-17T04:52:42.812Z,57.20
2023-03-17T04:53:52.587Z,58.14
2023-03-17T04:54:59.094Z,58.81
2023-03-17T04:56:12.637Z,59.68
2023-03-17T04:57:26.351Z,60.16
2023-03-17T04:58:40.100Z,60.75
2023-03-17T04:59:53.637Z,61.29
2023-03-17T05:01:07.681Z,62.46
2023-03-17T05:02:21.542Z,65.58
2023-03-17T05:03:36.140Z,67.44
2023-03-17T05:04:49.693Z,66.05
2023-03-17T05:06:03.310Z,63.50
2023-03-17T05:07:00.637Z,61.08
2023-03-17T05:08:14.140Z,58.21
2023-03-17T05:09:27.764Z,55.80
2023-03-17T05:10:41.429Z,55.18
2023-03-17T05:11:45.205Z,55.64
2023-03-17T05:12:58.758Z,56.58
2023-03-17T05:14:12.574Z,57.20
2023-03-17T05:15:26.200Z,58.04
2023-03-17T05:16:40.193Z,59.09
2023-03-17T05:17:53.894Z,59.73
2023-03-17T05:18:56.630Z,60.50
2023-03-17T05:20:00.413Z,61.67
2023-03-17T05:21:02.641Z,62.91
2023-03-17T05:22:16.186Z,65.29
2023-03-17T05:23:29.823Z,66.47
2023-03-17T05:24:43.425Z,65.88
2023-03-17T05:25:45.686Z,64.01
2023-03-17T05:26:48.285Z,61.84
2023-03-17T05:27:50.735Z,61.18
2023-03-17T05:29:04.407Z,60.72
2023-03-17T05:30:18.123Z,59.43
2023-03-17T05:31:24.807Z,57.03
2023-03-17T05:32:12.675Z,56.69
2023-03-17T05:33:26.211Z,57.48
2023-03-17T05:34:39.851Z,57.60
2023-03-17T05:35:53.601Z,58.22
2023-03-17T05:36:50.696Z,58.89
2023-03-17T05:38:04.314Z,60.13
2023-03-17T05:39:12.805Z,60.45
2023-03-17T05:40:28.298Z,61.19
2023-03-17T05:41:42.354Z,61.54
2023-03-17T05:42:55.917Z,63.03
2023-03-17T05:44:09.371Z,65.24
2023-03-17T05:45:22.906Z,65.55
2023-03-17T05:46:25.409Z,64.94
2023-03-17T05:47:39.107Z,63.15
2023-03-17T05:48:52.833Z,63.44
2023-03-17T05:49:59.507Z,63.34
2023-03-17T05:50:46.647Z,61.16
2023-03-17T05:52:00.194Z,57.85
2023-03-17T05:53:13.708Z,55.63
2023-03-17T05:54:26.027Z,54.62
2023-03-17T05:55:39.578Z,54.96
2023-03-17T05:56:45.977Z,55.68
2023-03-17T05:57:59.631Z,56.87
2023-03-17T05:59:13.262Z,57.91
2023-03-17T06:00:19.792Z,58.66
2023-03-17T06:01:33.545Z,59.74
2023-03-17T06:02:47.375Z,60.43
2023-03-17T06:04:01.455Z,61.08
2023-03-17T06:05:15.195Z,62.49
2023-03-17T06:06:29.133Z,65.73
2023-03-17T06:07:52.982Z,65.61
2023-03-17T06:09:09.686Z,65.42
2023-03-17T06:10:23.606Z,63.67
2023-03-17T06:11:37.315Z,62.26
2023-03-17T06:12:50.884Z,61.11
2023-03-17T06:14:04.355Z,58.73
2023-03-17T06:15:18.024Z,56.25
2023-03-17T06:16:31.579Z,56.10
2023-03-17T06:17:45.217Z,56.55
2023-03-17T06:18:38.759Z,57.41
2023-03-17T06:19:52.551Z,58.65
2023-03-17T06:21:07.678Z,58.72
2023-03-17T06:22:21.361Z,59.29
2023-03-17T06:23:17.685Z,60.21
2023-03-17T06:24:31.525Z,61.27
2023-03-17T06:25:45.537Z,61.52
2023-03-17T06:26:59.112Z,62.85
2023-03-17T06:27:45.952Z,65.32
2023-03-17T06:28:59.753Z,64.27
2023-03-17T06:30:06.151Z,64.30
2023-03-17T06:31:19.859Z,62.96
2023-03-17T06:32:33.345Z,62.95
2023-03-17T06:33:47.024Z,61.66
2023-03-17T06:34:41.849Z,59.43
2023-03-17T06:35:49.222Z,57.02
2023-03-17T06:37:02.750Z,56.50
2023-03-17T06:38:16.546Z,56.39
2023-03-17T06:39:10.004Z,57.08
2023-03-17T06:40:23.648Z,58.27
2023-03-17T06:41:36.025Z,58.75
2023-03-17T06:42:49.821Z,59.77
2023-03-17T06:44:03.473Z,60.14
2023-03-17T06:45:17.001Z,60.49
2023-03-17T06:46:30.665Z,61.45
2023-03-17T06:47:44.385Z,62.60
2023-03-17T06:48:58.071Z,64.72
2023-03-17T06:49:54.246Z,65.03
2023-03-17T06:51:10.488Z,63.15
2023-03-17T06:52:24.374Z,62.67
2023-03-17T06:53:38.009Z,61.24
2023-03-17T06:54:31.539Z,58.71
2023-03-17T06:55:45.436Z,56.81
2023-03-17T06:56:58.976Z,56.33
2023-03-17T06:58:12.601Z,56.53
2023-03-17T06:59:26.531Z,57.28
2023-03-17T07:00:40.158Z,58.40
2023-03-17T07:01:54.070Z,59.00
2023-03-17T07:03:07.707Z,59.50
2023-03-17T07:04:21.311Z,60.54
2023-03-17T07:05:35.204Z,60.92
2023-03-17T07:06:49.010Z,61.71
2023-03-17T07:08:02.626Z,61.26
2023-03-17T07:09:04.687Z,62.29
2023-03-17T07:10:18.476Z,63.46
2023-03-17T07:12:44.570Z,62.90
2023-03-17T07:13:37.993Z,61.34
2023-03-17T07:14:31.420Z,59.76
2023-03-17T07:15:45.031Z,57.14
2023-03-17T07:16:58.729Z,56.14
2023-03-17T07:17:52.349Z,55.55
2023-03-17T07:18:54.525Z,56.03
2023-03-17T07:20:08.277Z,56.85
2023-03-17T07:21:22.137Z,56.95
2023-03-17T07:22:25.320Z,57.53
2023-03-17T07:23:38.942Z,57.99
2023-03-17T07:24:52.688Z,57.94
2023-03-17T07:26:06.456Z,59.17
2023-03-17T07:27:22.776Z,59.95
2023-03-17T07:28:25.624Z,59.76
2023-03-17T07:29:39.234Z,59.75
2023-03-17T07:30:53.105Z,60.86
2023-03-17T07:32:06.889Z,59.53
2023-03-17T07:33:20.753Z,60.40
2023-03-17T07:34:34.307Z,60.12
2023-03-17T07:35:48.406Z,60.55
2023-03-17T07:37:02.325Z,60.36
2023-03-17T07:38:15.830Z,60.53
2023-03-17T07:39:29.448Z,61.59
2023-03-17T07:40:43.112Z,61.02
2023-03-17T07:41:40.046Z,61.30
2023-03-17T07:42:53.582Z,62.04
2023-03-17T07:44:06.825Z,63.67
2023-03-17T07:44:53.397Z,64.69
2023-03-17T07:46:07.296Z,61.61
2023-03-17T07:47:21.247Z,59.47
2023-03-17T07:48:34.777Z,55.74
2023-03-17T07:49:48.507Z,55.04
2023-03-17T07:51:01.887Z,54.54
2023-03-17T07:52:15.616Z,54.77
2023-03-17T07:53:29.256Z,55.73
2023-03-17T07:54:43.269Z,56.17
2023-03-17T07:55:40.147Z,56.92
2023-03-17T07:56:53.873Z,57.30
2023-03-17T07:58:07.652Z,57.33
2023-03-17T07:59:21.332Z,57.59
2023-03-17T08:00:35.284Z,58.84
2023-03-17T08:01:42.152Z,58.66
2023-03-17T08:03:08.891Z,58.73
2023-03-17T08:04:13.526Z,58.61
2023-03-17T08:05:27.295Z,58.54
2023-03-17T08:06:30.224Z,58.85
2023-03-17T08:07:43.968Z,59.27
2023-03-17T08:08:57.561Z,58.65
2023-03-17T08:10:11.423Z,59.52
2023-03-17T08:11:25.019Z,59.67
2023-03-17T08:12:27.482Z,60.20
2023-03-17T08:13:40.984Z,60.47
2023-03-17T08:14:54.569Z,60.72
2023-03-17T08:16:08.265Z,60.16
2023-03-17T08:17:21.902Z,60.58
2023-03-17T08:18:20.577Z,59.99
2023-03-17T08:19:34.178Z,60.42
2023-03-17T08:20:48.260Z,60.50
2023-03-17T08:22:02.070Z,60.96
2023-03-17T08:23:15.768Z,60.39
2023-03-17T08:24:29.404Z,61.07
2023-03-17T08:25:43.221Z,61.24
2023-03-17T08:26:58.584Z,60.36
2023-03-17T08:28:13.355Z,60.26
2023-03-17T08:29:27.211Z,60.72
2023-03-17T08:30:41.320Z,60.03
2023-03-17T08:31:37.136Z,59.76
2023-03-17T08:32:51.331Z,59.89
2023-03-17T08:34:05.102Z,59.70
2023-03-17T08:35:19.251Z,59.02
2023-03-17T08:36:32.727Z,59.53
2023-03-17T08:37:46.310Z,59.25
2023-03-17T08:38:49.813Z,59.49
2023-03-17T08:40:03.534Z,59.74
2023-03-17T08:41:17.151Z,59.85
2023-03-17T08:42:30.952Z,59.90
2023-03-17T08:43:44.586Z,60.03
2023-03-17T08:44:58.216Z,59.85
2023-03-17T08:46:00.623Z,60.29
2023-03-17T08:47:14.368Z,58.98
2023-03-17T08:48:28.251Z,59.20
2023-03-17T08:49:41.969Z,58.89
2023-03-17T08:50:49.125Z,58.79
2023-03-17T08:52:01.921Z,58.91
2023-03-17T08:53:04.720Z,58.20
2023-03-17T08:54:18.246Z,58.77
2023-03-17T08:55:31.824Z,58.66
2023-03-17T08:56:45.686Z,58.40
2023-03-17T08:57:44.727Z,58.24
2023-03-17T08:58:58.482Z,57.87
2023-03-17T09:00:00.573Z,57.88
2023-03-17T09:01:14.332Z,58.09
2023-03-17T09:02:28.042Z,58.17
2023-03-17T09:03:21.479Z,57.88
2023-03-17T09:04:33.888Z,57.58
2023-03-17T09:05:47.583Z,57.50
2023-03-17T09:07:04.004Z,57.75
2023-03-17T09:08:18.310Z,57.04
2023-03-17T09:09:33.394Z,56.87
2023-03-17T09:10:47.220Z,57.00
2023-03-17T09:11:40.947Z,57.09
2023-03-17T09:12:54.494Z,57.51
2023-03-17T09:13:57.908Z,57.42
2023-03-17T09:14:51.359Z,57.66
2023-03-17T09:16:05.144Z,56.79
2023-03-17T09:17:18.945Z,56.92
2023-03-17T09:18:32.763Z,56.46
2023-03-17T09:19:46.330Z,56.55
2023-03-17T09:21:00.014Z,56.42
2023-03-17T09:22:13.864Z,55.77
2023-03-17T09:23:27.723Z,56.13
2023-03-17T09:24:21.360Z,55.93
2023-03-17T09:25:35.154Z,56.00
2023-03-17T09:26:48.993Z,56.00
2023-03-17T09:28:02.604Z,56.33
2023-03-17T09:29:16.368Z,55.51
2023-03-17T09:30:33.780Z,55.57
2023-03-17T09:31:40.142Z,55.43
2023-03-17T09:32:53.865Z,54.87
2023-03-17T09:34:00.017Z,54.78
2023-03-17T09:35:13.610Z,54.99
2023-03-17T09:36:27.165Z,54.96
2023-03-17T09:37:40.726Z,54.09
2023-03-17T09:38:54.297Z,54.10
2023-03-17T09:40:08.190Z,54.03
2023-03-17T09:41:24.605Z,53.92
2023-03-17T09:42:38.154Z,53.94
2023-03-17T09:43:51.717Z,54.19
2023-03-17T09:45:09.212Z,53.66
2023-03-17T09:46:23.047Z,53.99
2023-03-17T09:47:36.646Z,54.08
2023-03-17T09:48:52.882Z,54.01
2023-03-17T09:49:59.500Z,53.99
2023-03-17T09:51:13.644Z,54.09
2023-03-17T09:52:27.268Z,53.48
2023-03-17T09:53:40.831Z,53.84
2023-03-17T09:54:50.023Z,53.82
2023-03-17T09:55:56.196Z,53.18
2023-03-17T09:57:09.845Z,53.27
2023-03-17T09:58:23.536Z,53.30
2023-03-17T09:59:46.207Z,53.75
2023-03-17T10:00:59.903Z,53.27
2023-03-17T10:02:13.438Z,52.71
2023-03-17T10:03:27.122Z,52.88
2023-03-17T10:04:40.775Z,52.16
2023-03-17T10:05:54.387Z,51.72
2023-03-17T10:07:02.612Z,51.63
2023-03-17T10:08:30.032Z,51.13
2023-03-17T10:09:44.827Z,51.59
2023-03-17T10:10:56.298Z,51.46
2023-03-17T10:12:16.167Z,51.06
2023-03-17T10:13:29.775Z,50.94
2023-03-17T10:14:46.390Z,51.15
2023-03-17T10:16:03.052Z,51.05
2023-03-17T10:18:41.744Z,50.76
2023-03-17T10:19:55.422Z,50.92
2023-03-17T10:21:12.411Z,50.88
2023-03-17T10:22:29.107Z,50.66
2023-03-17T10:23:48.416Z,50.49
2023-03-17T10:24:46.132Z,50.76
2023-03-17T10:25:41.644Z,49.47
2023-03-17T10:27:04.494Z,47.99
2023-03-17T10:28:18.222Z,49.15
2023-03-17T10:29:31.777Z,49.61
2023-03-17T10:30:45.652Z,49.27
2023-03-17T10:32:00.365Z,48.42
2023-03-17T10:33:17.385Z,48.77
2023-03-17T10:34:30.880Z,49.43
2023-03-17T10:35:44.389Z,49.45
2023-03-17T10:36:58.113Z,49.46
2023-03-17T10:38:14.484Z,49.32
2023-03-17T10:39:32.894Z,49.76
2023-03-17T10:40:47.020Z,49.68
2023-03-17T10:42:01.060Z,49.06
2023-03-17T10:43:08.092Z,48.69
2023-03-17T10:44:24.510Z,48.77
2023-03-17T10:45:40.677Z,48.86
2023-03-17T10:46:56.736Z,48.81
2023-03-17T10:49:14.178Z,48.36
2023-03-17T10:50:27.668Z,48.46
2023-03-17T10:51:41.442Z,48.77
2023-03-17T10:53:00.777Z,48.56
2023-03-17T10:54:14.517Z,47.88
2023-03-17T10:55:28.142Z,47.83
2023-03-17T10:56:41.925Z,47.75
2023-03-17T10:57:55.532Z,48.08
2023-03-17T10:59:24.447Z,48.24
2023-03-17T11:00:38.150Z,47.73
2023-03-17T11:01:57.937Z,47.73
2023-03-17T11:03:11.545Z,47.50
2023-03-17T11:04:25.235Z,47.73
2023-03-17T11:05:44.469Z,48.18
2023-03-17T11:06:58.221Z,48.51
2023-03-17T11:08:14.512Z,48.73
2023-03-17T11:09:28.041Z,48.35
2023-03-17T11:10:41.914Z,47.91
2023-03-17T11:12:07.774Z,48.10
2023-03-17T11:13:21.342Z,47.65
2023-03-17T11:14:43.940Z,47.04
2023-03-17T11:15:57.654Z,47.08
2023-03-17T11:17:12.507Z,47.12
2023-03-17T11:18:26.164Z,46.91
2023-03-17T11:19:40.855Z,46.99
2023-03-17T11:21:03.604Z,47.16
2023-03-17T11:22:17.485Z,47.43
2023-03-17T11:23:24.256Z,47.80
2023-03-17T11:24:37.938Z,47.80
2023-03-17T11:25:54.462Z,48.21
2023-03-17T11:27:11.203Z,48.45
2023-03-17T11:28:23.230Z,48.96
2023-03-17T11:29:52.460Z,48.24
2023-03-17T11:31:06.196Z,47.93
2023-03-17T11:32:19.811Z,47.83
2023-03-17T11:33:45.575Z,47.97
2023-03-17T11:34:50.621Z,48.34
2023-03-17T11:36:16.327Z,48.17
2023-03-17T11:37:38.909Z,48.17
2023-03-17T11:38:32.114Z,47.93
2023-03-17T11:39:45.777Z,48.03
2023-03-17T11:41:11.588Z,47.87
2023-03-17T11:42:23.368Z,47.88
2023-03-17T11:43:52.345Z,47.51
2023-03-17T11:45:24.102Z,46.70
2023-03-17T11:46:36.108Z,46.41
2023-03-17T11:47:36.321Z,46.17
2023-03-17T11:49:05.094Z,46.01
2023-03-17T11:51:37.948Z,45.15
2023-03-17T11:53:00.785Z,45.57
2023-03-17T11:54:17.303Z,46.30
2023-03-17T11:55:36.965Z,46.37
2023-03-17T11:56:34.303Z,46.40
2023-03-17T11:57:50.539Z,46.17
2023-03-17T11:59:13.275Z,46.10
2023-03-17T12:00:38.967Z,46.74
2023-03-17T12:01:55.656Z,46.76
2023-03-17T12:03:09.339Z,46.99
2023-03-17T12:04:23.242Z,47.35
2023-03-17T12:05:43.126Z,47.68
2023-03-17T12:06:59.204Z,47.35
2023-03-17T12:08:22.823Z,46.97
2023-03-17T12:09:40.856Z,46.81
2023-03-17T12:11:06.698Z,46.53
2023-03-17T12:12:20.233Z,46.70
2023-03-17T12:13:34.134Z,46.81
2023-03-17T12:14:37.488Z,47.03
2023-03-17T12:15:34.173Z,47.08
2023-03-17T12:16:50.630Z,47.02
2023-03-17T12:17:58.953Z,46.98
2023-03-17T12:19:15.452Z,46.86
2023-03-17T12:20:32.092Z,46.70
2023-03-17T12:21:51.853Z,46.87
2023-03-17T12:23:05.388Z,47.38
2023-03-17T12:24:19.165Z,47.49
2023-03-17T12:25:38.800Z,47.34
2023-03-17T12:26:55.861Z,47.57
2023-03-17T12:28:09.757Z,47.09
2023-03-17T12:29:16.810Z,46.66
2023-03-17T12:30:39.737Z,46.20
2023-03-17T12:31:53.413Z,45.59
2023-03-17T12:33:00.146Z,46.25
2023-03-17T12:34:22.678Z,46.46
2023-03-17T12:35:36.280Z,46.82
2023-03-17T12:36:38.925Z,46.73
2023-03-17T12:37:41.053Z,46.72
2023-03-17T12:38:54.679Z,46.40
2023-03-17T12:40:08.247Z,46.27
2023-03-17T12:41:20.522Z,46.47
2023-03-17T12:42:34.208Z,46.32
2023-03-17T12:43:46.188Z,46.63
2023-03-17T12:44:59.953Z,46.86
2023-03-17T12:46:03.987Z,46.40
2023-03-17T12:47:17.852Z,46.59
2023-03-17T12:48:29.614Z,46.99
2023-03-17T12:49:49.448Z,47.38
2023-03-17T12:51:02.998Z,47.41
2023-03-17T12:52:28.498Z,47.21
2023-03-17T12:53:42.077Z,46.76
2023-03-17T12:55:01.571Z,46.01
2023-03-17T12:56:16.313Z,45.47
2023-03-17T12:57:31.015Z,45.75
2023-03-17T12:58:44.813Z,45.89
2023-03-17T13:00:01.404Z,46.15
2023-03-17T13:01:15.141Z,46.11
2023-03-17T13:02:37.715Z,46.28
2023-03-17T13:03:57.331Z,46.32
2023-03-17T13:04:53.710Z,45.67
2023-03-17T13:06:10.485Z,45.38
2023-03-17T13:07:24.138Z,45.49
2023-03-17T13:08:20.305Z,45.61
2023-03-17T13:08:53.470Z,45.82
2023-03-17T13:10:12.969Z,46.09
2023-03-17T13:11:26.683Z,45.43
2023-03-17T13:12:40.368Z,45.23
2023-03-17T13:13:53.857Z,45.78
2023-03-17T13:15:07.375Z,45.78
2023-03-17T13:16:21.163Z,45.61
2023-03-17T13:17:33.109Z,45.88
2023-03-17T13:18:55.924Z,45.82
2023-03-17T13:20:12.489Z,45.22
2023-03-17T13:21:38.645Z,45.07
2023-03-17T13:22:52.348Z,45.18
2023-03-17T13:24:15.185Z,45.32
2023-03-17T13:25:28.394Z,45.96
2023-03-17T13:26:42.259Z,45.83
2023-03-17T13:27:55.934Z,45.72
2023-03-17T13:29:15.334Z,45.72
2023-03-17T13:30:22.110Z,45.13
2023-03-17T13:31:36.127Z,45.42
2023-03-17T13:33:05.012Z,44.66
2023-03-17T13:34:24.796Z,44.55
2023-03-17T13:35:41.792Z,44.93
2023-03-17T13:36:55.525Z,45.09
2023-03-17T13:38:09.445Z,44.87
2023-03-17T13:39:24.946Z,44.97
2023-03-17T13:40:37.206Z,44.98
2023-03-17T13:41:30.475Z,44.94
2023-03-17T13:42:46.898Z,44.83
2023-03-17T13:44:06.664Z,44.29
2023-03-17T13:45:23.075Z,44.25
2023-03-17T13:46:36.680Z,44.73
2023-03-17T13:48:05.433Z,44.43
2023-03-17T13:49:01.435Z,44.33
2023-03-17T13:50:15.801Z,44.52
2023-03-17T13:51:52.763Z,44.86
2023-03-17T13:53:13.031Z,45.04
2023-03-17T13:54:28.645Z,44.81
2023-03-17T13:55:42.332Z,44.79
2023-03-17T13:57:04.891Z,44.77
2023-03-17T13:57:58.248Z,44.78
2023-03-17T13:59:14.677Z,44.59
2023-03-17T14:00:31.051Z,44.55
2023-03-17T14:01:33.384Z,44.18
2023-03-17T14:02:58.254Z,44.10
2023-03-17T14:04:11.911Z,44.17
2023-03-17T14:05:31.467Z,44.29
2023-03-17T14:06:38.279Z,44.01
2023-03-17T14:07:51.842Z,44.30
2023-03-17T14:09:05.451Z,44.60
2023-03-17T14:10:19.019Z,44.62
2023-03-17T14:11:32.494Z,44.80
2023-03-17T14:12:46.177Z,44.69
2023-03-17T14:13:59.794Z,44.61
2023-03-17T14:15:16.338Z,44.93
2023-03-17T14:16:47.981Z,44.95
2023-03-17T14:18:02.420Z,44.93
2023-03-17T14:19:37.736Z,45.16
2023-03-17T14:20:54.427Z,45.48
2023-03-17T14:22:10.830Z,45.58
2023-03-17T14:23:25.759Z,45.47
2023-03-17T14:24:44.227Z,45.70
2023-03-17T14:26:03.247Z,45.65
2023-03-17T14:27:13.826Z,45.75
2023-03-17T14:28:28.656Z,45.71
2023-03-17T14:29:47.093Z,45.64
2023-03-17T14:32:20.070Z,45.11
2023-03-17T14:33:36.297Z,45.13
2023-03-17T14:34:49.084Z,45.26
2023-03-17T14:35:22.204Z,45.31
2023-03-17T14:36:38.593Z,45.55
2023-03-17T14:37:52.780Z,45.63
2023-03-17T14:39:09.314Z,45.32
2023-03-17T14:40:25.956Z,45.45
2023-03-17T14:41:42.981Z,45.27
2023-03-17T14:44:05.621Z,45.52
2023-03-17T14:45:03.075Z,45.60
2023-03-17T14:46:08.259Z,45.80
2023-03-17T14:47:21.747Z,45.77
2023-03-17T14:48:35.366Z,45.70
2023-03-17T14:50:01.393Z,45.70
2023-03-17T14:51:08.747Z,45.91
2023-03-17T14:52:22.347Z,46.05
2023-03-17T14:53:35.941Z,46.32
2023-03-17T14:54:52.231Z,46.22
2023-03-17T14:56:08.757Z,46.30
2023-03-17T14:57:22.430Z,46.10
2023-03-17T14:58:36.264Z,46.35
2023-03-17T15:00:02.181Z,46.65
2023-03-17T15:01:16.243Z,46.77
2023-03-17T15:02:30.378Z,46.81
2023-03-17T15:03:44.065Z,47.18
2023-03-17T15:05:00.770Z,47.60
2023-03-17T15:06:17.217Z,47.63
2023-03-17T15:07:35.610Z,47.84
2023-03-17T15:09:08.706Z,47.99
2023-03-17T15:11:58.975Z,48.45
2023-03-17T15:13:12.575Z,48.44
2023-03-17T15:14:26.221Z,48.46
2023-03-17T15:15:45.788Z,48.17
2023-03-17T15:17:02.474Z,48.20
2023-03-17T15:18:16.432Z,48.33
2023-03-17T15:19:30.159Z,48.06
2023-03-17T15:20:47.255Z,48.18
2023-03-17T15:22:00.660Z,48.34
2023-03-17T15:23:17.071Z,48.42
2023-03-17T15:24:31.035Z,48.50
2023-03-17T15:25:43.427Z,48.92
2023-03-17T15:27:10.760Z,49.14
2023-03-17T15:28:25.720Z,49.25
2023-03-17T15:29:42.216Z,49.21
2023-03-17T15:31:00.406Z,49.18
2023-03-17T15:32:18.417Z,49.04
2023-03-17T15:33:32.408Z,49.18
2023-03-17T15:34:46.201Z,49.24
2023-03-17T15:36:00.021Z,49.26
2023-03-17T15:37:13.931Z,49.43
2023-03-17T15:38:17.560Z,49.74